Time;durP1;ratioP1;P1;durP2;ratioP2;P2;SDS_P1;SDS_P2;PMS_P1;PMS_P2;Temp;Humidity;BMP_temperature;BMP_pressure;BME280_temperature;BME280_humidity;BME280_pressure;Samples;Min_cycle;Max_cycle;Signal;HPM_P1;HPM_P2
2022/09/17 00:00:18;;;;;;;4.90;1.73;;;13.40;1.00;;;;;;4992877;28;20447;-52
2022/09/17 00:02:44;;;;;;;2.40;1.70;;;13.40;1.00;;;;;;4990115;28;20437;-56
2022/09/17 00:05:10;;;;;;;3.63;1.37;;;13.40;1.00;;;;;;4989897;28;20185;-54
2022/09/17 00:07:36;;;;;;;2.97;1.63;;;13.20;1.00;;;;;;4991291;28;20408;-55
2022/09/17 00:10:03;;;;;;;3.90;2.27;;;13.30;1.00;;;;;;4993771;28;20445;-54
2022/09/17 00:12:30;;;;;;;5.03;2.00;;;13.30;1.00;;;;;;4999456;28;20193;-53
2022/09/17 00:14:56;;;;;;;4.80;1.50;;;13.30;1.00;;;;;;4999852;28;20467;-55
2022/09/17 00:17:22;;;;;;;1.60;1.47;;;13.30;1.00;;;;;;4993516;28;20454;-54
2022/09/17 00:19:48;;;;;;;2.13;1.80;;;13.40;1.00;;;;;;4993551;28;21179;-55
2022/09/17 00:22:14;;;;;;;3.50;1.23;;;13.40;1.00;;;;;;4994921;28;20189;-55
2022/09/17 00:24:40;;;;;;;2.40;1.37;;;13.50;1.00;;;;;;4993594;28;20428;-56
2022/09/17 00:27:06;;;;;;;3.83;1.73;;;13.40;1.00;;;;;;4993642;28;20448;-54
2022/09/17 00:29:31;;;;;;;3.03;1.70;;;13.30;1.00;;;;;;4993623;28;20193;-53
2022/09/17 00:31:57;;;;;;;4.23;1.20;;;13.30;1.00;;;;;;4993597;28;20210;-55
2022/09/17 00:34:22;;;;;;;3.30;2.07;;;13.30;1.00;;;;;;4993188;28;20702;-53
2022/09/17 00:36:48;;;;;;;6.40;1.53;;;13.40;1.00;;;;;;4993184;28;20179;-56
2022/09/17 00:39:15;;;;;;;5.73;1.67;;;13.40;1.00;;;;;;4993326;28;20193;-55
2022/09/17 00:41:41;;;;;;;4.13;1.40;;;13.40;1.00;;;;;;4993134;28;20289;-55
2022/09/17 00:44:38;;;;;;;2.50;1.30;;;13.30;1.00;;;;;;4992969;28;21248;-54
2022/09/17 00:47:04;;;;;;;2.83;1.40;;;13.30;1.00;;;;;;4992693;28;20445;-56
2022/09/17 00:49:31;;;;;;;5.13;1.60;;;13.40;1.00;;;;;;4992784;28;20441;-54
2022/09/17 00:52:03;;;;;;;3.03;1.27;;;13.40;1.00;;;;;;4992887;28;20411;-54
2022/09/17 00:54:29;;;;;;;5.00;1.90;;;13.30;1.00;;;;;;4992925;28;20452;-54
2022/09/17 00:56:56;;;;;;;2.27;1.23;;;13.30;1.00;;;;;;4992937;28;20435;-54
2022/09/17 00:59:22;;;;;;;3.80;1.60;;;13.30;1.00;;;;;;4993013;28;20851;-53
2022/09/17 01:01:48;;;;;;;4.00;1.57;;;13.30;1.00;;;;;;4992595;28;20472;-56
2022/09/17 01:04:23;;;;;;;3.77;1.17;;;13.30;1.00;;;;;;4993099;28;20457;-53
2022/09/17 01:07:03;;;;;;;6.83;1.30;;;13.40;1.00;;;;;;4990361;28;20440;-56
2022/09/17 01:09:49;;;;;;;6.43;1.90;;;13.50;1.00;;;;;;4990597;28;20437;-56
2022/09/17 01:12:29;;;;;;;2.33;1.40;;;13.50;1.00;;;;;;4991343;28;20441;-56
2022/09/17 01:15:15;;;;;;;2.30;1.20;;;13.40;1.00;;;;;;4992300;28;20443;-53
2022/09/17 01:17:58;;;;;;;7.00;1.20;;;13.40;1.00;;;;;;4994131;28;20416;-53
2022/09/17 01:20:43;;;;;;;4.30;1.30;;;13.40;1.00;;;;;;4990763;28;20909;-54
2022/09/17 01:23:27;;;;;;;2.40;1.10;;;13.40;1.00;;;;;;4991938;28;20448;-55
2022/09/17 01:26:31;;;;;;;2.80;1.30;;;13.30;1.00;;;;;;4992703;28;20508;-54
2022/09/17 01:29:15;;;;;;;2.53;1.23;;;13.10;1.00;;;;;;4992289;28;20766;-55
2022/09/17 01:31:56;;;;;;;1.80;1.30;;;13.30;1.00;;;;;;4992319;28;20880;-53
2022/09/17 01:34:48;;;;;;;1.97;1.37;;;13.30;1.00;;;;;;4991377;28;20516;-55
2022/09/17 01:37:22;;;;;;;2.37;1.30;;;13.30;1.00;;;;;;4992154;28;20449;-56
2022/09/17 01:40:17;;;;;;;2.10;1.30;;;13.20;1.00;;;;;;4992071;28;20445;-57
2022/09/17 01:43:05;;;;;;;3.93;1.63;;;13.30;1.00;;;;;;4989908;28;20963;-55
2022/09/17 01:45:39;;;;;;;3.00;1.30;;;13.40;1.00;;;;;;4990844;28;20994;-56
2022/09/17 01:48:18;;;;;;;3.27;1.23;;;13.30;1.00;;;;;;4974351;28;20468;-55
2022/09/17 01:51:07;;;;;;;3.70;1.50;;;13.30;1.00;;;;;;4991474;28;20473;-53
2022/09/17 01:54:00;;;;;;;3.97;2.00;;;13.40;1.00;;;;;;4996629;28;20459;-53
2022/09/17 01:56:40;;;;;;;4.27;1.40;;;13.30;1.00;;;;;;4991529;28;21081;-53
2022/09/17 01:59:15;;;;;;;4.73;1.20;;;13.40;1.00;;;;;;4991955;28;20822;-54
2022/09/17 02:01:44;;;;;;;3.73;1.43;;;13.40;1.00;;;;;;4991672;28;20802;-54
2022/09/17 02:04:20;;;;;;;6.03;1.23;;;13.40;1.00;;;;;;4991769;28;20441;-55
2022/09/17 02:06:52;;;;;;;2.83;1.30;;;13.40;1.00;;;;;;4991281;28;20970;-55
2022/09/17 02:09:23;;;;;;;3.93;1.30;;;13.40;1.00;;;;;;4991662;28;20445;-56
2022/09/17 02:11:54;;;;;;;2.87;1.27;;;13.40;1.00;;;;;;4991470;28;20442;-54
2022/09/17 02:14:49;;;;;;;3.20;1.00;;;13.30;1.00;;;;;;4991271;28;21084;-55
2022/09/17 02:17:31;;;;;;;3.13;1.10;;;13.40;1.00;;;;;;4989360;28;20784;-55
2022/09/17 02:19:58;;;;;;;1.67;1.20;;;13.30;1.00;;;;;;4988810;28;20942;-55
2022/09/17 02:22:40;;;;;;;4.30;1.90;;;13.40;1.00;;;;;;4996361;28;20448;-55
2022/09/17 02:25:32;;;;;;;3.33;1.43;;;13.40;1.00;;;;;;4991559;28;20419;-54
2022/09/17 02:28:11;;;;;;;5.33;1.50;;;13.50;1.00;;;;;;4991066;28;21049;-54
2022/09/17 02:30:37;;;;;;;2.63;1.10;;;13.60;1.00;;;;;;4990789;28;20459;-55
2022/09/17 02:33:08;;;;;;;5.27;1.30;;;13.50;1.00;;;;;;4991278;28;20929;-56
2022/09/17 02:35:35;;;;;;;4.97;1.37;;;13.40;1.00;;;;;;4991210;28;20471;-55
2022/09/17 02:38:01;;;;;;;7.57;1.30;;;13.20;1.00;;;;;;4991002;28;20491;-56
2022/09/17 02:40:30;;;;;;;3.40;1.10;;;13.30;1.00;;;;;;4990860;28;20420;-54
2022/09/17 02:43:22;;;;;;;4.30;1.30;;;13.40;1.00;;;;;;4990901;28;20452;-55
2022/09/17 02:45:48;;;;;;;5.30;1.50;;;13.50;1.00;;;;;;4993394;28;20449;-54
2022/09/17 02:48:34;;;;;;;3.57;1.30;;;13.60;1.00;;;;;;4990717;28;20531;-55
2022/09/17 02:51:34;;;;;;;3.47;1.10;;;13.40;1.00;;;;;;4997010;28;20190;-54
2022/09/17 02:54:27;;;;;;;3.23;1.30;;;13.60;1.00;;;;;;4989252;28;20443;-54
2022/09/17 02:57:15;;;;;;;2.73;0.90;;;13.50;1.00;;;;;;4988295;28;20408;-54
2022/09/17 03:00:08;;;;;;;1.67;1.10;;;13.40;1.00;;;;;;4992835;28;21197;-56
2022/09/17 03:03:11;;;;;;;5.80;1.20;;;13.40;1.00;;;;;;4993532;28;20410;-55
2022/09/17 03:05:38;;;;;;;3.90;1.40;;;13.50;1.00;;;;;;4987804;28;20445;-55
2022/09/17 03:08:11;;;;;;;3.30;1.20;;;13.40;1.00;;;;;;4993991;28;20441;-54
2022/09/17 03:10:36;;;;;;;4.43;1.03;;;13.40;1.00;;;;;;4989987;28;20445;-55
2022/09/17 03:13:02;;;;;;;3.20;1.20;;;13.40;1.00;;;;;;4993609;28;20449;-53
2022/09/17 03:15:28;;;;;;;2.50;1.00;;;13.40;1.00;;;;;;4993009;28;20273;-56
2022/09/17 03:17:54;;;;;;;3.33;0.97;;;13.50;1.00;;;;;;4990691;28;20983;-55
2022/09/17 03:20:20;;;;;;;2.57;0.97;;;13.60;1.00;;;;;;4990397;28;20742;-56
2022/09/17 03:22:46;;;;;;;3.33;1.53;;;13.60;1.00;;;;;;4990387;28;20182;-56
2022/09/17 03:25:12;;;;;;;6.10;1.73;;;13.50;1.00;;;;;;4990667;28;20428;-54
2022/09/17 03:27:37;;;;;;;2.47;1.30;;;13.50;1.00;;;;;;4990157;28;20496;-55
2022/09/17 03:30:05;;;;;;;8.13;1.47;;;13.60;1.00;;;;;;4990522;28;20440;-56
2022/09/17 03:32:31;;;;;;;5.30;1.33;;;13.50;1.00;;;;;;4990229;28;20214;-55
2022/09/17 03:34:57;;;;;;;1.87;1.10;;;13.50;1.00;;;;;;4990359;28;20466;-55
2022/09/17 03:37:22;;;;;;;2.40;1.50;;;13.50;1.00;;;;;;4990521;28;20244;-54
2022/09/17 03:39:48;;;;;;;1.80;1.03;;;13.60;1.00;;;;;;4990269;28;20182;-54
2022/09/17 03:42:13;;;;;;;3.10;1.30;;;13.60;1.00;;;;;;4991526;28;20556;-56
2022/09/17 03:44:39;;;;;;;2.30;1.20;;;13.50;1.00;;;;;;4994004;28;20186;-54
2022/09/17 03:47:05;;;;;;;2.10;1.13;;;13.50;1.00;;;;;;4994361;28;20266;-55
2022/09/17 03:49:30;;;;;;;2.23;1.27;;;13.50;1.00;;;;;;4994211;28;20193;-56
2022/09/17 03:51:56;;;;;;;4.43;1.40;;;13.50;1.00;;;;;;4999353;28;20659;-53
2022/09/17 03:54:21;;;;;;;2.10;1.20;;;13.50;1.00;;;;;;4994001;28;20205;-56
2022/09/17 03:56:47;;;;;;;3.20;1.70;;;13.50;1.00;;;;;;4994111;28;20186;-54
2022/09/17 03:59:13;;;;;;;3.70;1.47;;;13.50;1.00;;;;;;4994534;28;20555;-56
2022/09/17 04:01:38;;;;;;;3.00;1.53;;;13.50;1.00;;;;;;4997160;28;20445;-54
2022/09/17 04:04:04;;;;;;;7.30;1.77;;;13.40;1.00;;;;;;4993738;28;20238;-55
2022/09/17 04:06:30;;;;;;;4.70;1.93;;;13.60;1.00;;;;;;4993973;28;20194;-56
2022/09/17 04:08:56;;;;;;;4.53;1.60;;;13.60;1.00;;;;;;4993515;28;20194;-55
2022/09/17 04:11:22;;;;;;;2.13;1.27;;;13.60;1.00;;;;;;4993999;28;20186;-55
2022/09/17 04:13:47;;;;;;;4.17;1.50;;;13.50;1.00;;;;;;4993674;28;20696;-54
2022/09/17 04:16:13;;;;;;;6.73;1.50;;;13.40;1.00;;;;;;4994064;28;20445;-54
2022/09/17 04:18:39;;;;;;;5.87;2.53;;;13.40;1.00;;;;;;4998678;28;20193;-55
2022/09/17 04:21:05;;;;;;;4.17;1.30;;;13.40;1.00;;;;;;4999468;28;21030;-56
2022/09/17 04:23:31;;;;;;;3.50;1.77;;;13.50;1.00;;;;;;4993847;28;20177;-55
2022/09/17 04:25:56;;;;;;;6.30;1.60;;;13.50;1.00;;;;;;4993471;28;20186;-55
2022/09/17 04:28:22;;;;;;;2.90;1.67;;;13.40;1.00;;;;;;4993688;28;20252;-54
2022/09/17 04:30:48;;;;;;;6.63;1.90;;;13.30;1.00;;;;;;5006909;28;20232;-54
2022/09/17 04:33:14;;;;;;;2.37;1.20;;;13.20;1.00;;;;;;4993010;28;20445;-54
2022/09/17 04:35:39;;;;;;;3.00;1.70;;;13.20;1.00;;;;;;4993379;28;20206;-55
2022/09/17 04:38:05;;;;;;;5.23;1.80;;;13.30;1.00;;;;;;4993057;28;20183;-54
2022/09/17 04:40:30;;;;;;;5.90;2.73;;;13.40;1.00;;;;;;4993187;28;20170;-54
2022/09/17 04:43:02;;;;;;;1.90;1.70;;;13.40;1.00;;;;;;4992962;28;20245;-55
2022/09/17 04:45:29;;;;;;;3.20;1.70;;;13.30;1.00;;;;;;4983264;28;20269;-56
2022/09/17 04:47:55;;;;;;;2.73;1.67;;;13.10;1.00;;;;;;4993278;28;20449;-53
2022/09/17 04:50:21;;;;;;;3.03;2.57;;;13.10;1.00;;;;;;4993145;28;20495;-54
2022/09/17 04:52:47;;;;;;;2.10;1.73;;;13.10;1.00;;;;;;4993285;28;20182;-55
2022/09/17 04:55:14;;;;;;;4.47;1.60;;;13.20;1.00;;;;;;4992754;28;20851;-55
2022/09/17 04:57:49;;;;;;;4.10;2.23;;;13.30;1.00;;;;;;4993071;28;20528;-55
2022/09/17 05:00:16;;;;;;;1.97;1.73;;;13.20;1.00;;;;;;4992637;28;20516;-55
2022/09/17 05:02:44;;;;;;;3.03;1.67;;;13.20;1.00;;;;;;4992967;28;20437;-55
2022/09/17 05:05:10;;;;;;;1.77;1.60;;;13.10;1.00;;;;;;4992653;28;20441;-56
2022/09/17 05:07:38;;;;;;;2.70;1.60;;;13.30;1.00;;;;;;4992990;28;20997;-55
2022/09/17 05:10:04;;;;;;;3.00;1.53;;;13.20;1.00;;;;;;4992644;28;20194;-55
2022/09/17 05:12:30;;;;;;;3.73;2.07;;;13.30;1.00;;;;;;4992702;28;20456;-54
2022/09/17 05:14:55;;;;;;;3.50;2.00;;;13.30;1.00;;;;;;4992751;28;20465;-58
2022/09/17 05:17:21;;;;;;;3.07;1.50;;;13.30;1.00;;;;;;4992716;28;20189;-55
2022/09/17 05:19:46;;;;;;;2.47;1.70;;;13.30;1.00;;;;;;4992651;28;20186;-56
2022/09/17 05:22:12;;;;;;;2.03;1.80;;;13.40;1.00;;;;;;4992756;28;20389;-56
2022/09/17 05:24:38;;;;;;;3.10;1.97;;;13.40;1.00;;;;;;4992648;28;20214;-54
2022/09/17 05:27:05;;;;;;;3.70;2.03;;;13.40;1.00;;;;;;4992498;28;20198;-54
2022/09/17 05:29:30;;;;;;;5.13;2.50;;;13.40;1.00;;;;;;4991931;28;20791;-55
2022/09/17 05:31:56;;;;;;;3.67;2.20;;;13.30;1.00;;;;;;4992031;28;20419;-55
2022/09/17 05:34:21;;;;;;;2.50;2.30;;;13.40;1.00;;;;;;4991925;28;20206;-54
2022/09/17 05:36:48;;;;;;;4.80;2.40;;;13.40;1.00;;;;;;4992243;28;20182;-53
2022/09/17 05:39:13;;;;;;;2.30;2.10;;;13.40;1.00;;;;;;4991906;28;20189;-55
2022/09/17 05:41:39;;;;;;;2.73;1.73;;;13.40;1.00;;;;;;4991973;28;20434;-55
2022/09/17 05:44:05;;;;;;;3.80;2.10;;;13.40;1.00;;;;;;4994869;28;20268;-54
2022/09/17 05:46:30;;;;;;;1.83;1.73;;;13.30;1.00;;;;;;4992339;28;20670;-55
2022/09/17 05:48:56;;;;;;;2.20;1.93;;;13.20;1.00;;;;;;4991636;28;20704;-54
2022/09/17 05:51:23;;;;;;;1.60;1.50;;;13.20;1.00;;;;;;4991864;28;20213;-53
2022/09/17 05:53:48;;;;;;;1.93;1.73;;;13.20;1.00;;;;;;4991906;28;20430;-54
2022/09/17 05:56:14;;;;;;;4.80;1.97;;;13.20;1.00;;;;;;4991857;28;20441;-54
2022/09/17 05:58:40;;;;;;;3.77;2.00;;;13.10;1.00;;;;;;4991437;28;20290;-54
2022/09/17 06:01:06;;;;;;;3.40;1.93;;;13.10;1.00;;;;;;4991644;28;20480;-55
2022/09/17 06:03:31;;;;;;;1.60;1.50;;;13.10;1.00;;;;;;4991121;28;20241;-54
2022/09/17 06:05:59;;;;;;;1.90;1.80;;;13.10;1.00;;;;;;4991023;28;20540;-55
2022/09/17 06:08:27;;;;;;;2.13;1.80;;;13.20;1.00;;;;;;4991529;28;20191;-55
2022/09/17 06:10:53;;;;;;;3.53;1.77;;;13.20;1.00;;;;;;4998041;28;21220;-54
2022/09/17 06:13:19;;;;;;;2.10;1.70;;;13.20;1.00;;;;;;4991409;28;20444;-53
2022/09/17 06:15:52;;;;;;;1.83;1.73;;;13.30;1.00;;;;;;4989273;28;20210;-56
2022/09/17 06:18:18;;;;;;;1.90;1.80;;;13.30;1.00;;;;;;4990993;28;20524;-54
2022/09/17 06:20:54;;;;;;;2.27;1.70;;;13.30;1.00;;;;;;4997463;28;20452;-55
2022/09/17 06:23:21;;;;;;;3.20;1.70;;;13.20;1.00;;;;;;4991640;28;20476;-55
2022/09/17 06:25:55;;;;;;;1.50;1.40;;;13.20;1.00;;;;;;4991090;28;20432;-55
2022/09/17 06:28:20;;;;;;;2.63;1.30;;;13.40;1.00;;;;;;4990911;28;20457;-53
2022/09/17 06:30:47;;;;;;;1.50;1.33;;;13.40;1.00;;;;;;4991710;28;20779;-55
2022/09/17 06:33:13;;;;;;;1.60;1.47;;;13.50;1.00;;;;;;4990884;28;20209;-53
2022/09/17 06:35:38;;;;;;;1.63;1.27;;;13.50;1.00;;;;;;4991212;28;20497;-54
2022/09/17 06:38:04;;;;;;;2.20;1.17;;;13.60;1.00;;;;;;4990827;28;20190;-56
2022/09/17 06:40:30;;;;;;;2.80;1.00;;;13.60;1.00;;;;;;4973384;28;20290;-55
2022/09/17 06:42:59;;;;;;;1.20;1.10;;;13.70;1.00;;;;;;4990569;28;20311;-56
2022/09/17 06:45:25;;;;;;;1.00;1.00;;;13.70;1.00;;;;;;4991538;28;20690;-55
2022/09/17 06:47:51;;;;;;;0.97;0.90;;;13.50;1.00;;;;;;4990565;28;20768;-54
2022/09/17 06:50:17;;;;;;;1.17;0.90;;;13.40;1.00;;;;;;4990962;28;20438;-54
2022/09/17 06:52:53;;;;;;;0.93;0.90;;;13.40;1.00;;;;;;4990592;28;20707;-54
2022/09/17 06:55:19;;;;;;;0.90;0.90;;;13.30;1.00;;;;;;4988712;28;20197;-55
2022/09/17 06:57:45;;;;;;;2.00;1.03;;;13.50;1.00;;;;;;4990605;28;20446;-56
2022/09/17 07:00:13;;;;;;;1.37;1.00;;;13.50;1.00;;;;;;4990424;28;20441;-55
2022/09/17 07:02:39;;;;;;;0.90;0.87;;;13.50;1.00;;;;;;4991213;28;20447;-55
2022/09/17 07:05:05;;;;;;;1.10;1.07;;;13.50;1.00;;;;;;4990459;28;20453;-54
2022/09/17 07:07:31;;;;;;;0.80;0.70;;;13.70;1.00;;;;;;4990702;28;20274;-55
2022/09/17 07:09:57;;;;;;;1.13;1.03;;;;;;;;;;4973392;28;20593;-55
2022/09/17 07:12:22;;;;;;;0.87;0.87;;;13.70;1.00;;;;;;4994466;28;20909;-55
2022/09/17 07:14:48;;;;;;;2.10;1.00;;;13.40;1.00;;;;;;4990574;28;20472;-54
2022/09/17 07:17:14;;;;;;;2.07;1.23;;;13.40;1.00;;;;;;4990285;28;20201;-55
2022/09/17 07:19:40;;;;;;;1.73;1.00;;;13.40;1.00;;;;;;4990305;28;21022;-56
2022/09/17 07:22:06;;;;;;;1.63;1.10;;;13.30;1.00;;;;;;4990179;28;20529;-56
2022/09/17 07:24:32;;;;;;;1.43;1.20;;;13.20;1.00;;;;;;4993573;28;20186;-57
2022/09/17 07:26:58;;;;;;;2.33;1.50;;;13.20;1.00;;;;;;4996022;28;20259;-55
2022/09/17 07:29:26;;;;;;;2.43;2.23;;;13.10;1.00;;;;;;4990283;28;20950;-55
2022/09/17 07:31:52;;;;;;;2.43;2.17;;;13.10;1.00;;;;;;4989628;28;20190;-55
2022/09/17 07:34:18;;;;;;;5.20;3.30;;;;;;;;;;4990181;28;20442;-54
2022/09/17 07:36:44;;;;;;;4.40;2.70;;;13.30;1.00;;;;;;4990227;28;20799;-55
2022/09/17 07:39:12;;;;;;;3.53;3.13;;;13.40;1.00;;;;;;4990071;28;20452;-54
2022/09/17 07:41:38;;;;;;;4.67;3.43;;;13.40;1.00;;;;;;4991541;28;20560;-55
2022/09/17 07:44:05;;;;;;;4.80;3.20;;;13.50;1.00;;;;;;4991255;28;20477;-54
2022/09/17 07:46:31;;;;;;;5.47;3.70;;;13.50;1.00;;;;;;4992383;28;20415;-54
2022/09/17 07:48:56;;;;;;;6.83;3.93;;;13.50;1.00;;;;;;4989836;28;20415;-56
2022/09/17 07:51:25;;;;;;;7.57;3.40;;;13.60;1.00;;;;;;4990059;28;20504;-55
2022/09/17 07:53:51;;;;;;;5.97;3.80;;;13.70;1.00;;;;;;4990143;28;20182;-56
2022/09/17 07:56:17;;;;;;;5.23;3.70;;;13.80;1.00;;;;;;4989554;28;20449;-56
2022/09/17 07:58:42;;;;;;;6.63;4.10;;;13.90;1.00;;;;;;4989833;28;20519;-55
2022/09/17 08:01:14;;;;;;;7.00;4.07;;;14.10;1.00;;;;;;4989768;28;20190;-56
2022/09/17 08:03:39;;;;;;;5.73;4.20;;;14.20;1.00;;;;;;4989956;28;20190;-55
2022/09/17 08:06:13;;;;;;;8.03;4.53;;;14.10;1.00;;;;;;4989649;28;21083;-56
2022/09/17 08:08:40;;;;;;;8.10;4.87;;;14.20;1.00;;;;;;4989850;28;20206;-55
2022/09/17 08:11:14;;;;;;;7.10;4.37;;;14.20;1.00;;;;;;4992662;28;20442;-55
2022/09/17 08:13:40;;;;;;;4.90;4.43;;;14.10;1.00;;;;;;4990039;28;20443;-53
2022/09/17 08:16:09;;;;;;;9.23;4.90;;;14.10;1.00;;;;;;4989171;28;20474;-55
2022/09/17 08:18:38;;;;;;;9.70;4.67;;;14.00;1.00;;;;;;4989885;28;20454;-54
2022/09/17 08:21:06;;;;;;;11.60;4.87;;;14.10;1.00;;;;;;4989918;28;20788;-53
2022/09/17 08:23:36;;;;;;;6.97;4.63;;;14.20;1.00;;;;;;4989773;28;20445;-57
2022/09/17 08:26:03;;;;;;;11.40;4.10;;;14.20;1.00;;;;;;4989862;28;20420;-54
2022/09/17 08:28:30;;;;;;;7.57;3.83;;;14.30;1.00;;;;;;4990414;28;20762;-56
2022/09/17 08:31:09;;;;;;;7.70;3.63;;;14.40;1.00;;;;;;4999962;28;20494;-55
2022/09/17 08:33:37;;;;;;;9.00;4.40;;;14.50;1.00;;;;;;4992873;28;20743;-56
2022/09/17 08:36:04;;;;;;;9.70;3.90;;;;;;;;;;4993043;28;20962;-56
2022/09/17 08:38:36;;;;;;;5.90;3.20;;;14.60;1.00;;;;;;4992379;28;20427;-56
2022/09/17 08:41:20;;;;;;;6.90;3.87;;;14.50;1.00;;;;;;4993558;28;20441;-56
2022/09/17 08:44:09;;;;;;;10.57;3.80;;;14.70;1.00;;;;;;4990599;28;20468;-55
2022/09/17 08:46:47;;;;;;;6.93;3.20;;;14.60;1.00;;;;;;4992966;28;20456;-55
2022/09/17 08:49:29;;;;;;;6.57;3.07;;;14.60;1.00;;;;;;4992733;28;20442;-56
2022/09/17 08:52:09;;;;;;;6.00;3.10;;;14.60;1.00;;;;;;4992353;28;20989;-53
2022/09/17 08:54:37;;;;;;;7.70;3.50;;;14.80;1.00;;;;;;4992756;28;20886;-54
2022/09/17 08:57:23;;;;;;;9.40;4.37;;;14.90;1.00;;;;;;4998834;28;20432;-56
2022/09/17 08:59:53;;;;;;;7.57;4.27;;;14.90;1.00;;;;;;4990460;28;20619;-55
2022/09/17 09:02:44;;;;;;;6.20;3.97;;;14.90;1.00;;;;;;4992701;28;20416;-55
2022/09/17 09:05:17;;;;;;;8.40;4.20;;;14.90;1.00;;;;;;4991924;28;20416;-54
2022/09/17 09:07:55;;;;;;;8.90;3.87;;;15.10;1.00;;;;;;4992107;28;20424;-56
2022/09/17 09:10:30;;;;;;;8.30;4.57;;;15.20;1.00;;;;;;4992607;28;20444;-56
2022/09/17 09:12:59;;;;;;;6.13;3.23;;;15.40;1.00;;;;;;4992388;28;20444;-55
2022/09/17 09:15:37;;;;;;;6.13;3.70;;;15.40;1.00;;;;;;4992279;28;20464;-55
2022/09/17 09:18:15;;;;;;;5.80;3.07;;;15.40;1.00;;;;;;4992331;28;20412;-55
2022/09/17 09:20:54;;;;;;;7.40;2.70;;;15.40;1.00;;;;;;4992088;28;20420;-54
2022/09/17 09:23:31;;;;;;;8.80;3.00;;;15.40;1.00;;;;;;4992522;28;20499;-56
2022/09/17 09:26:12;;;;;;;5.30;2.30;;;15.50;1.00;;;;;;4990255;28;20436;-55
2022/09/17 09:29:03;;;;;;;9.03;3.23;;;15.50;1.00;;;;;;4992270;28;20431;-56
2022/09/17 09:32:08;;;;;;;4.90;2.40;;;15.50;1.00;;;;;;4999372;28;20468;-55
2022/09/17 09:34:35;;;;;;;11.50;2.47;;;15.70;1.00;;;;;;4906822;29;20453;-53
2022/09/17 09:37:26;;;;;;;7.60;2.43;;;15.90;1.00;;;;;;4974325;28;20748;-54
2022/09/17 09:39:56;;;;;;;5.80;2.60;;;15.90;1.00;;;;;;4977105;28;20883;-54
2022/09/17 09:42:29;;;;;;;4.30;1.70;;;15.90;1.00;;;;;;4991853;28;21057;-55
2022/09/17 09:45:15;;;;;;;5.93;2.07;;;15.90;1.00;;;;;;4991342;28;20428;-55
2022/09/17 09:47:51;;;;;;;5.33;1.83;;;16.00;1.00;;;;;;4992017;28;20471;-55
2022/09/17 09:50:36;;;;;;;4.87;2.03;;;16.20;1.00;;;;;;4991757;28;20956;-56
2022/09/17 09:53:29;;;;;;;4.40;2.17;;;16.10;1.00;;;;;;4991353;28;20503;-54
2022/09/17 09:56:31;;;;;;;8.10;2.00;;;15.60;1.00;;;;;;4990304;28;20469;-56
2022/09/17 09:58:57;;;;;;;7.60;2.43;;;14.80;1.00;;;;;;4975215;28;20982;-53
2022/09/17 10:01:26;;;;;;;7.23;2.30;;;14.50;1.00;;;;;;4997792;28;20453;-55
2022/09/17 10:03:54;;;;;;;5.13;2.40;;;14.50;1.00;;;;;;4991302;28;20190;-53
2022/09/17 10:06:20;;;;;;;4.50;1.87;;;14.60;1.00;;;;;;4995709;28;20503;-55
2022/09/17 10:08:48;;;;;;;3.87;1.63;;;15.00;1.00;;;;;;4993005;28;20449;-55
2022/09/17 10:11:23;;;;;;;11.37;2.37;;;15.30;1.00;;;;;;4988735;28;20444;-56
2022/09/17 10:13:49;;;;;;;4.40;1.50;;;15.90;1.00;;;;;;4991168;28;20465;-56
2022/09/17 10:16:15;;;;;;;5.77;1.20;;;15.80;1.00;;;;;;4991156;28;20955;-56
2022/09/17 10:18:41;;;;;;;7.63;2.47;;;15.80;1.00;;;;;;4991133;28;20175;-54
2022/09/17 10:21:21;;;;;;;3.40;1.00;;;15.70;1.00;;;;;;4991339;28;20768;-56
2022/09/17 10:23:48;;;;;;;2.13;1.03;;;15.10;1.00;;;;;;4991131;28;20178;-55
2022/09/17 10:26:28;;;;;;;1.83;0.77;;;14.90;1.00;;;;;;4991271;28;20460;-55
2022/09/17 10:29:11;;;;;;;5.77;1.40;;;14.80;1.00;;;;;;4990692;28;20464;-55
2022/09/17 10:31:51;;;;;;;4.23;1.30;;;14.90;1.00;;;;;;4990725;28;20436;-54
2022/09/17 10:34:23;;;;;;;5.50;1.17;;;14.80;1.00;;;;;;4996202;28;20504;-54
2022/09/17 10:36:49;;;;;;;5.13;1.07;;;14.40;1.00;;;;;;4991405;28;20407;-55
2022/09/17 10:39:35;;;;;;;4.10;1.17;;;14.50;1.00;;;;;;4991118;28;20448;-53
2022/09/17 10:42:12;;;;;;;4.30;1.57;;;14.60;1.00;;;;;;4990809;28;20189;-55
2022/09/17 10:44:48;;;;;;;5.27;1.10;;;14.60;1.00;;;;;;4978293;28;20493;-54
2022/09/17 10:47:21;;;;;;;7.77;1.33;;;14.60;1.00;;;;;;4989221;28;20444;-55
2022/09/17 10:49:59;;;;;;;2.40;1.30;;;15.00;1.00;;;;;;4990732;28;20516;-55
2022/09/17 10:52:42;;;;;;;2.23;1.20;;;15.20;1.00;;;;;;4990400;28;20449;-56
2022/09/17 10:55:29;;;;;;;3.70;1.17;;;15.40;1.00;;;;;;4990278;28;20440;-55
2022/09/17 10:57:55;;;;;;;11.37;1.53;;;15.40;1.00;;;;;;4996012;28;20438;-55
2022/09/17 11:00:23;;;;;;;5.03;1.40;;;15.60;1.00;;;;;;4996276;28;20503;-54
2022/09/17 11:03:12;;;;;;;2.73;1.20;;;15.70;1.00;;;;;;4972888;28;20825;-54
2022/09/17 11:06:07;;;;;;;4.23;1.00;;;15.90;1.00;;;;;;4990496;28;20424;-54
2022/09/17 11:08:48;;;;;;;5.00;1.00;;;15.90;1.00;;;;;;4990062;28;20441;-54
2022/09/17 11:11:35;;;;;;;2.07;1.00;;;15.90;1.00;;;;;;4990205;28;20950;-54
2022/09/17 11:14:13;;;;;;;3.63;1.50;;;16.10;1.00;;;;;;4990394;28;20470;-54
2022/09/17 11:16:44;;;;;;;2.57;1.20;;;16.30;1.00;;;;;;4990969;28;20881;-54
2022/09/17 11:19:26;;;;;;;3.07;1.33;;;16.30;1.00;;;;;;4991979;28;20457;-54
2022/09/17 11:22:00;;;;;;;4.10;1.30;;;16.30;1.00;;;;;;4989384;28;20479;-55
2022/09/17 11:24:47;;;;;;;3.90;1.10;;;16.30;1.00;;;;;;4988538;28;20437;-55
2022/09/17 11:27:27;;;;;;;2.97;1.00;;;16.00;1.00;;;;;;4990288;28;20472;-54
2022/09/17 11:29:55;;;;;;;7.43;1.93;;;16.20;1.00;;;;;;4988758;28;20533;-56
2022/09/17 11:32:30;;;;;;;3.77;1.40;;;16.50;1.00;;;;;;4990248;28;20417;-54
2022/09/17 11:35:19;;;;;;;1.50;1.00;;;16.90;1.00;;;;;;4990297;28;20471;-54
2022/09/17 11:38:09;;;;;;;2.90;1.43;;;17.40;1.00;;;;;;4989924;28;20440;-55
2022/09/17 11:41:00;;;;;;;4.27;1.30;;;17.30;1.00;;;;;;4988730;28;20931;-54
2022/09/17 11:43:28;;;;;;;5.33;1.80;;;17.20;1.00;;;;;;4989911;28;20448;-53
2022/09/17 11:46:17;;;;;;;8.70;1.97;;;17.10;1.00;;;;;;4989697;28;20435;-55
2022/09/17 11:48:53;;;;;;;4.77;0.97;;;16.50;1.00;;;;;;4990280;28;20523;-56
2022/09/17 11:51:51;;;;;;;4.40;1.10;;;15.10;1.00;;;;;;4990265;28;20415;-55
2022/09/17 11:54:25;;;;;;;2.30;1.33;;;15.00;1.00;;;;;;4989741;28;20491;-55
2022/09/17 11:57:12;;;;;;;2.60;1.40;;;14.60;1.00;;;;;;4996339;28;20518;-55
2022/09/17 12:00:16;;;;;;;2.50;1.10;;;14.50;1.00;;;;;;4989470;28;20791;-55
2022/09/17 12:02:48;;;;;;;2.30;1.20;;;14.50;1.00;;;;;;4994228;28;20426;-55
2022/09/17 12:05:23;;;;;;;3.10;1.60;;;14.50;1.00;;;;;;4993919;28;20909;-54
2022/09/17 12:07:54;;;;;;;4.53;1.27;;;14.80;1.00;;;;;;4992553;28;20452;-56
2022/09/17 12:10:28;;;;;;;6.40;2.63;;;14.80;1.00;;;;;;4991532;28;20543;-53
2022/09/17 12:13:21;;;;;;;5.23;1.70;;;15.00;1.00;;;;;;4993756;28;20447;-56
2022/09/17 12:15:50;;;;;;;5.33;2.37;;;15.30;1.00;;;;;;4993318;28;20450;-57
2022/09/17 12:18:26;;;;;;;4.50;1.77;;;15.60;1.00;;;;;;4993194;28;20469;-56
2022/09/17 12:20:55;;;;;;;4.10;1.70;;;16.00;1.00;;;;;;4993588;28;20436;-54
2022/09/17 12:23:37;;;;;;;4.10;1.40;;;16.20;1.00;;;;;;4993355;28;20772;-54
2022/09/17 12:26:21;;;;;;;7.60;2.00;;;16.30;1.00;;;;;;4993005;28;20415;-55
2022/09/17 12:29:13;;;;;;;3.50;2.13;;;16.20;1.00;;;;;;4993296;28;20445;-56
2022/09/17 12:31:52;;;;;;;5.17;1.73;;;16.00;1.00;;;;;;4983221;28;20453;-56
2022/09/17 12:34:52;;;;;;;5.93;2.23;;;15.90;1.00;;;;;;4992172;28;20430;-55
2022/09/17 12:37:36;;;;;;;4.93;1.77;;;15.90;1.00;;;;;;4986539;28;20461;-56
2022/09/17 12:40:07;;;;;;;6.33;2.00;;;16.20;1.00;;;;;;4992909;28;20411;-55
2022/09/17 12:42:50;;;;;;;4.03;1.60;;;16.20;1.00;;;;;;4993007;28;20461;-57
2022/09/17 12:45:23;;;;;;;6.13;2.10;;;16.20;1.00;;;;;;4991075;28;20445;-53
2022/09/17 12:48:33;;;;;;;5.47;1.70;;;16.40;1.00;;;;;;4993375;28;20444;-55
2022/09/17 12:51:26;;;;;;;4.67;1.90;;;16.50;1.00;;;;;;4974817;28;20419;-56
2022/09/17 12:53:58;;;;;;;4.13;1.83;;;16.60;1.00;;;;;;4992996;28;20454;-55
2022/09/17 12:57:01;;;;;;;3.10;1.53;;;16.70;1.00;;;;;;4992975;28;20878;-55
2022/09/17 12:59:37;;;;;;;6.73;2.63;;;17.00;1.00;;;;;;4991070;28;20407;-54
2022/09/17 13:02:26;;;;;;;5.53;1.73;;;17.40;1.00;;;;;;4993160;28;20418;-54
2022/09/17 13:05:08;;;;;;;9.77;2.33;;;15.70;1.00;;;;;;4992897;28;20793;-55
2022/09/17 13:08:11;;;;;;;6.47;2.07;;;17.20;1.00;;;;;;4991305;28;20423;-54
2022/09/17 13:11:35;;;;;;;2.83;1.50;;;17.10;1.00;;;;;;4991656;28;20454;-56
2022/09/17 13:14:20;;;;;;;1.80;1.20;;;17.10;1.00;;;;;;4896007;29;20438;-54
2022/09/17 13:17:04;;;;;;;5.13;1.80;;;17.10;1.00;;;;;;4987090;28;20584;-56
2022/09/17 13:19:51;;;;;;;8.23;1.70;;;17.30;1.00;;;;;;4993809;28;20520;-55
2022/09/17 13:22:19;;;;;;;6.27;1.83;;;17.00;1.00;;;;;;4993269;28;20528;-55
2022/09/17 13:24:47;;;;;;;2.93;1.20;;;16.40;1.00;;;;;;4992473;28;20453;-55
2022/09/17 13:27:24;;;;;;;3.40;1.10;;;16.10;1.00;;;;;;4991630;28;20771;-56
2022/09/17 13:29:52;;;;;;;2.20;1.20;;;15.40;1.00;;;;;;4992225;28;20426;-55